sensor_id;sensor_type;location;lat;lon;timestamp;P1;durP1;ratioP1;P2;durP2;ratioP2
84246;SDS011;74385;53.360;6.290;2023-12-22T00:00:04;10.98;;;3.47;;
84246;SDS011;74385;53.360;6.290;2023-12-22T00:02:31;8.07;;;2.78;;
84246;SDS011;74385;53.360;6.290;2023-12-22T00:04:57;14.45;;;3.35;;
84246;SDS011;74385;53.360;6.290;2023-12-22T00:07:23;12.30;;;2.55;;
84246;SDS011;74385;53.360;6.290;2023-12-22T00:09:49;13.00;;;4.55;;
84246;SDS011;74385;53.360;6.290;2023-12-22T00:12:15;12.75;;;3.38;;
84246;SDS011;74385;53.360;6.290;2023-12-22T00:14:41;12.77;;;3.55;;
84246;SDS011;74385;53.360;6.290;2023-12-22T00:17:07;13.18;;;3.47;;
84246;SDS011;74385;53.360;6.290;2023-12-22T00:19:33;26.75;;;4.22;;
84246;SDS011;74385;53.360;6.290;2023-12-22T00:22:00;19.40;;;4.68;;
84246;SDS011;74385;53.360;6.290;2023-12-22T00:24:28;13.90;;;3.55;;
84246;SDS011;74385;53.360;6.290;2023-12-22T00:26:54;7.35;;;2.08;;
84246;SDS011;74385;53.360;6.290;2023-12-22T00:29:20;7.07;;;1.67;;
84246;SDS011;74385;53.360;6.290;2023-12-22T00:31:46;10.90;;;2.53;;
84246;SDS011;74385;53.360;6.290;2023-12-22T00:34:12;12.25;;;2.83;;
84246;SDS011;74385;53.360;6.290;2023-12-22T00:36:38;16.17;;;3.80;;
84246;SDS011;74385;53.360;6.290;2023-12-22T00:39:04;11.32;;;3.58;;
84246;SDS011;74385;53.360;6.290;2023-12-22T00:41:30;18.90;;;3.58;;
84246;SDS011;74385;53.360;6.290;2023-12-22T00:43:56;17.77;;;4.32;;
84246;SDS011;74385;53.360;6.290;2023-12-22T00:46:22;15.88;;;3.83;;
84246;SDS011;74385;53.360;6.290;2023-12-22T00:48:48;17.48;;;3.75;;
84246;SDS011;74385;53.360;6.290;2023-12-22T00:51:14;14.00;;;3.10;;
84246;SDS011;74385;53.360;6.290;2023-12-22T00:53:41;11.82;;;2.47;;
84246;SDS011;74385;53.360;6.290;2023-12-22T00:56:07;17.90;;;3.40;;
84246;SDS011;74385;53.360;6.290;2023-12-22T00:58:33;12.77;;;3.75;;
84246;SDS011;74385;53.360;6.290;2023-12-22T01:00:59;14.88;;;4.22;;
84246;SDS011;74385;53.360;6.290;2023-12-22T01:03:25;19.30;;;4.90;;
84246;SDS011;74385;53.360;6.290;2023-12-22T01:05:51;19.02;;;3.88;;
84246;SDS011;74385;53.360;6.290;2023-12-22T01:08:17;17.75;;;4.85;;
84246;SDS011;74385;53.360;6.290;2023-12-22T01:10:45;18.60;;;5.22;;
84246;SDS011;74385;53.360;6.290;2023-12-22T01:13:11;19.38;;;4.57;;
84246;SDS011;74385;53.360;6.290;2023-12-22T01:15:37;14.63;;;3.58;;
84246;SDS011;74385;53.360;6.290;2023-12-22T01:18:03;14.57;;;3.85;;
84246;SDS011;74385;53.360;6.290;2023-12-22T01:20:30;21.23;;;4.63;;
84246;SDS011;74385;53.360;6.290;2023-12-22T01:22:56;21.85;;;4.53;;
84246;SDS011;74385;53.360;6.290;2023-12-22T01:25:22;10.38;;;3.30;;
84246;SDS011;74385;53.360;6.290;2023-12-22T01:27:48;15.70;;;3.58;;
84246;SDS011;74385;53.360;6.290;2023-12-22T01:30:17;19.10;;;4.90;;
84246;SDS011;74385;53.360;6.290;2023-12-22T01:32:43;11.88;;;2.95;;
84246;SDS011;74385;53.360;6.290;2023-12-22T01:35:09;8.90;;;1.85;;
84246;SDS011;74385;53.360;6.290;2023-12-22T01:37:38;12.57;;;2.58;;
84246;SDS011;74385;53.360;6.290;2023-12-22T01:40:04;6.90;;;2.60;;
84246;SDS011;74385;53.360;6.290;2023-12-22T01:42:30;11.13;;;2.50;;
84246;SDS011;74385;53.360;6.290;2023-12-22T01:44:56;14.70;;;3.22;;
84246;SDS011;74385;53.360;6.290;2023-12-22T01:47:22;11.75;;;2.53;;
84246;SDS011;74385;53.360;6.290;2023-12-22T01:49:49;13.30;;;3.13;;
84246;SDS011;74385;53.360;6.290;2023-12-22T01:52:16;17.48;;;4.43;;
84246;SDS011;74385;53.360;6.290;2023-12-22T01:54:42;16.25;;;3.55;;
84246;SDS011;74385;53.360;6.290;2023-12-22T01:57:08;9.82;;;3.13;;
84246;SDS011;74385;53.360;6.290;2023-12-22T01:59:35;12.80;;;3.67;;
84246;SDS011;74385;53.360;6.290;2023-12-22T02:02:02;11.10;;;2.40;;
84246;SDS011;74385;53.360;6.290;2023-12-22T02:04:28;11.75;;;2.80;;
84246;SDS011;74385;53.360;6.290;2023-12-22T02:06:58;6.93;;;2.03;;
84246;SDS011;74385;53.360;6.290;2023-12-22T02:09:26;7.72;;;2.13;;
84246;SDS011;74385;53.360;6.290;2023-12-22T02:11:52;6.88;;;1.65;;
84246;SDS011;74385;53.360;6.290;2023-12-22T02:14:18;6.13;;;1.73;;
84246;SDS011;74385;53.360;6.290;2023-12-22T02:16:46;13.70;;;2.35;;
84246;SDS011;74385;53.360;6.290;2023-12-22T02:19:22;9.45;;;2.58;;
84246;SDS011;74385;53.360;6.290;2023-12-22T02:22:03;13.07;;;2.83;;
84246;SDS011;74385;53.360;6.290;2023-12-22T02:24:29;18.20;;;3.97;;
84246;SDS011;74385;53.360;6.290;2023-12-22T02:26:56;17.25;;;3.50;;
84246;SDS011;74385;53.360;6.290;2023-12-22T02:29:24;14.98;;;2.60;;
84246;SDS011;74385;53.360;6.290;2023-12-22T02:31:51;12.15;;;3.38;;
84246;SDS011;74385;53.360;6.290;2023-12-22T02:34:19;12.35;;;2.78;;
84246;SDS011;74385;53.360;6.290;2023-12-22T02:36:45;18.38;;;4.35;;
84246;SDS011;74385;53.360;6.290;2023-12-22T02:39:13;18.83;;;4.32;;
84246;SDS011;74385;53.360;6.290;2023-12-22T02:41:40;10.57;;;2.25;;
84246;SDS011;74385;53.360;6.290;2023-12-22T02:44:06;18.80;;;4.85;;
84246;SDS011;74385;53.360;6.290;2023-12-22T02:46:33;9.45;;;2.10;;
84246;SDS011;74385;53.360;6.290;2023-12-22T02:48:59;16.17;;;2.40;;
84246;SDS011;74385;53.360;6.290;2023-12-22T02:51:26;11.98;;;1.98;;
84246;SDS011;74385;53.360;6.290;2023-12-22T02:53:52;4.80;;;1.52;;
84246;SDS011;74385;53.360;6.290;2023-12-22T02:56:18;5.15;;;1.33;;
84246;SDS011;74385;53.360;6.290;2023-12-22T02:58:44;5.97;;;1.73;;
84246;SDS011;74385;53.360;6.290;2023-12-22T03:01:10;11.70;;;1.80;;
84246;SDS011;74385;53.360;6.290;2023-12-22T03:03:36;6.75;;;2.03;;
84246;SDS011;74385;53.360;6.290;2023-12-22T03:06:02;10.88;;;2.10;;
84246;SDS011;74385;53.360;6.290;2023-12-22T03:08:29;8.85;;;2.55;;
84246;SDS011;74385;53.360;6.290;2023-12-22T03:10:55;14.70;;;3.33;;
84246;SDS011;74385;53.360;6.290;2023-12-22T03:13:21;16.50;;;3.38;;
84246;SDS011;74385;53.360;6.290;2023-12-22T03:15:47;11.23;;;3.65;;
84246;SDS011;74385;53.360;6.290;2023-12-22T03:18:13;16.13;;;3.70;;
84246;SDS011;74385;53.360;6.290;2023-12-22T03:20:39;7.38;;;2.25;;
84246;SDS011;74385;53.360;6.290;2023-12-22T03:23:05;15.07;;;3.35;;
84246;SDS011;74385;53.360;6.290;2023-12-22T03:25:31;15.00;;;3.75;;
84246;SDS011;74385;53.360;6.290;2023-12-22T03:27:57;13.10;;;3.58;;
84246;SDS011;74385;53.360;6.290;2023-12-22T03:30:23;7.28;;;1.80;;
84246;SDS011;74385;53.360;6.290;2023-12-22T03:32:49;10.55;;;2.35;;
84246;SDS011;74385;53.360;6.290;2023-12-22T03:35:15;9.80;;;2.22;;
84246;SDS011;74385;53.360;6.290;2023-12-22T03:37:41;13.60;;;3.35;;
84246;SDS011;74385;53.360;6.290;2023-12-22T03:40:08;14.50;;;4.03;;
84246;SDS011;74385;53.360;6.290;2023-12-22T03:42:34;10.68;;;2.80;;
84246;SDS011;74385;53.360;6.290;2023-12-22T03:45:01;15.18;;;3.35;;
84246;SDS011;74385;53.360;6.290;2023-12-22T03:47:27;15.75;;;3.40;;
84246;SDS011;74385;53.360;6.290;2023-12-22T03:49:53;16.83;;;3.17;;
84246;SDS011;74385;53.360;6.290;2023-12-22T03:52:19;7.70;;;2.40;;
84246;SDS011;74385;53.360;6.290;2023-12-22T03:54:45;7.50;;;2.53;;
84246;SDS011;74385;53.360;6.290;2023-12-22T03:57:11;15.25;;;3.92;;
84246;SDS011;74385;53.360;6.290;2023-12-22T03:59:37;19.38;;;4.50;;
84246;SDS011;74385;53.360;6.290;2023-12-22T04:02:03;13.30;;;3.83;;
84246;SDS011;74385;53.360;6.290;2023-12-22T04:04:29;16.58;;;2.70;;
84246;SDS011;74385;53.360;6.290;2023-12-22T04:06:56;14.35;;;3.55;;
84246;SDS011;74385;53.360;6.290;2023-12-22T04:09:22;18.65;;;3.75;;
84246;SDS011;74385;53.360;6.290;2023-12-22T04:11:48;10.18;;;2.85;;
84246;SDS011;74385;53.360;6.290;2023-12-22T04:14:14;9.35;;;1.60;;
84246;SDS011;74385;53.360;6.290;2023-12-22T04:16:41;8.45;;;2.35;;
84246;SDS011;74385;53.360;6.290;2023-12-22T04:19:07;8.40;;;2.17;;
84246;SDS011;74385;53.360;6.290;2023-12-22T04:21:33;13.38;;;2.42;;
84246;SDS011;74385;53.360;6.290;2023-12-22T04:23:59;13.20;;;2.67;;
84246;SDS011;74385;53.360;6.290;2023-12-22T04:26:25;12.60;;;3.05;;
84246;SDS011;74385;53.360;6.290;2023-12-22T04:28:51;12.52;;;3.72;;
84246;SDS011;74385;53.360;6.290;2023-12-22T04:31:17;20.85;;;3.50;;
84246;SDS011;74385;53.360;6.290;2023-12-22T04:33:43;13.43;;;2.50;;
84246;SDS011;74385;53.360;6.290;2023-12-22T04:36:10;9.65;;;2.63;;
84246;SDS011;74385;53.360;6.290;2023-12-22T04:38:36;16.30;;;3.05;;
84246;SDS011;74385;53.360;6.290;2023-12-22T04:41:02;13.20;;;3.22;;
84246;SDS011;74385;53.360;6.290;2023-12-22T04:43:28;15.57;;;2.95;;
84246;SDS011;74385;53.360;6.290;2023-12-22T04:45:54;10.50;;;3.05;;
84246;SDS011;74385;53.360;6.290;2023-12-22T04:48:20;12.13;;;2.67;;
84246;SDS011;74385;53.360;6.290;2023-12-22T04:50:46;14.27;;;3.28;;
84246;SDS011;74385;53.360;6.290;2023-12-22T04:53:12;7.07;;;2.17;;
84246;SDS011;74385;53.360;6.290;2023-12-22T04:55:38;8.20;;;1.95;;
84246;SDS011;74385;53.360;6.290;2023-12-22T04:58:04;6.68;;;1.95;;
84246;SDS011;74385;53.360;6.290;2023-12-22T05:00:30;13.07;;;3.53;;
84246;SDS011;74385;53.360;6.290;2023-12-22T05:02:56;11.80;;;3.08;;
84246;SDS011;74385;53.360;6.290;2023-12-22T05:05:22;17.75;;;4.15;;
84246;SDS011;74385;53.360;6.290;2023-12-22T05:07:48;9.68;;;3.30;;
84246;SDS011;74385;53.360;6.290;2023-12-22T05:10:15;12.75;;;3.60;;
84246;SDS011;74385;53.360;6.290;2023-12-22T05:12:41;11.18;;;3.00;;
84246;SDS011;74385;53.360;6.290;2023-12-22T05:15:07;9.13;;;2.80;;
84246;SDS011;74385;53.360;6.290;2023-12-22T05:17:33;14.60;;;3.55;;
84246;SDS011;74385;53.360;6.290;2023-12-22T05:19:59;11.77;;;3.50;;
84246;SDS011;74385;53.360;6.290;2023-12-22T05:22:25;13.77;;;3.15;;
84246;SDS011;74385;53.360;6.290;2023-12-22T05:27:20;11.80;;;2.65;;
84246;SDS011;74385;53.360;6.290;2023-12-22T05:29:47;13.18;;;3.00;;
84246;SDS011;74385;53.360;6.290;2023-12-22T05:32:13;14.43;;;3.58;;
84246;SDS011;74385;53.360;6.290;2023-12-22T05:34:39;14.75;;;3.15;;
84246;SDS011;74385;53.360;6.290;2023-12-22T05:37:05;20.52;;;3.97;;
84246;SDS011;74385;53.360;6.290;2023-12-22T05:39:31;14.73;;;3.35;;
84246;SDS011;74385;53.360;6.290;2023-12-22T05:41:57;13.57;;;3.03;;
84246;SDS011;74385;53.360;6.290;2023-12-22T05:44:23;16.17;;;3.28;;
84246;SDS011;74385;53.360;6.290;2023-12-22T05:46:49;11.25;;;2.65;;
84246;SDS011;74385;53.360;6.290;2023-12-22T05:49:15;11.82;;;3.20;;
84246;SDS011;74385;53.360;6.290;2023-12-22T05:51:41;8.05;;;2.22;;
84246;SDS011;74385;53.360;6.290;2023-12-22T05:54:08;11.05;;;2.50;;
84246;SDS011;74385;53.360;6.290;2023-12-22T05:56:35;16.30;;;4.07;;
84246;SDS011;74385;53.360;6.290;2023-12-22T05:59:01;7.07;;;2.38;;
84246;SDS011;74385;53.360;6.290;2023-12-22T06:01:28;9.77;;;2.75;;
84246;SDS011;74385;53.360;6.290;2023-12-22T06:03:54;16.05;;;3.72;;
84246;SDS011;74385;53.360;6.290;2023-12-22T06:06:21;9.85;;;2.83;;
84246;SDS011;74385;53.360;6.290;2023-12-22T06:08:48;7.97;;;2.03;;
84246;SDS011;74385;53.360;6.290;2023-12-22T06:11:14;13.25;;;3.35;;
84246;SDS011;74385;53.360;6.290;2023-12-22T06:13:40;6.18;;;1.88;;
84246;SDS011;74385;53.360;6.290;2023-12-22T06:16:06;9.82;;;2.30;;
84246;SDS011;74385;53.360;6.290;2023-12-22T06:18:35;9.80;;;1.92;;
84246;SDS011;74385;53.360;6.290;2023-12-22T06:21:01;12.43;;;2.67;;
84246;SDS011;74385;53.360;6.290;2023-12-22T06:23:28;10.15;;;2.30;;
84246;SDS011;74385;53.360;6.290;2023-12-22T06:25:55;18.85;;;3.58;;
84246;SDS011;74385;53.360;6.290;2023-12-22T06:28:21;9.50;;;2.13;;
84246;SDS011;74385;53.360;6.290;2023-12-22T06:30:47;9.93;;;1.65;;
84246;SDS011;74385;53.360;6.290;2023-12-22T06:33:13;5.32;;;0.73;;
84246;SDS011;74385;53.360;6.290;2023-12-22T06:35:39;8.20;;;1.85;;
84246;SDS011;74385;53.360;6.290;2023-12-22T06:38:09;1.92;;;0.45;;
84246;SDS011;74385;53.360;6.290;2023-12-22T06:40:36;6.28;;;1.67;;
84246;SDS011;74385;53.360;6.290;2023-12-22T06:43:03;10.73;;;2.30;;
84246;SDS011;74385;53.360;6.290;2023-12-22T06:45:29;12.95;;;2.50;;
84246;SDS011;74385;53.360;6.290;2023-12-22T06:47:55;7.30;;;1.92;;
84246;SDS011;74385;53.360;6.290;2023-12-22T06:50:22;4.53;;;1.85;;
84246;SDS011;74385;53.360;6.290;2023-12-22T06:52:48;7.82;;;1.65;;
84246;SDS011;74385;53.360;6.290;2023-12-22T06:55:14;8.55;;;2.03;;
84246;SDS011;74385;53.360;6.290;2023-12-22T06:57:41;9.48;;;2.38;;
84246;SDS011;74385;53.360;6.290;2023-12-22T07:00:08;4.35;;;1.27;;
84246;SDS011;74385;53.360;6.290;2023-12-22T07:02:34;8.32;;;2.15;;
84246;SDS011;74385;53.360;6.290;2023-12-22T07:07:31;3.60;;;1.42;;
84246;SDS011;74385;53.360;6.290;2023-12-22T07:09:57;9.00;;;2.00;;
84246;SDS011;74385;53.360;6.290;2023-12-22T07:12:23;10.93;;;1.95;;
84246;SDS011;74385;53.360;6.290;2023-12-22T07:14:49;8.93;;;1.63;;
84246;SDS011;74385;53.360;6.290;2023-12-22T07:17:15;14.43;;;2.90;;
84246;SDS011;74385;53.360;6.290;2023-12-22T07:19:41;15.68;;;2.45;;
84246;SDS011;74385;53.360;6.290;2023-12-22T07:22:07;6.05;;;1.30;;
84246;SDS011;74385;53.360;6.290;2023-12-22T07:24:33;6.22;;;1.50;;
84246;SDS011;74385;53.360;6.290;2023-12-22T07:26:59;4.28;;;1.20;;
84246;SDS011;74385;53.360;6.290;2023-12-22T07:29:25;7.18;;;1.50;;
84246;SDS011;74385;53.360;6.290;2023-12-22T07:31:51;7.05;;;1.05;;
84246;SDS011;74385;53.360;6.290;2023-12-22T07:34:17;6.43;;;1.48;;
84246;SDS011;74385;53.360;6.290;2023-12-22T07:36:44;10.25;;;2.03;;
84246;SDS011;74385;53.360;6.290;2023-12-22T07:39:10;6.80;;;2.22;;
84246;SDS011;74385;53.360;6.290;2023-12-22T07:41:36;6.68;;;2.05;;
84246;SDS011;74385;53.360;6.290;2023-12-22T07:44:02;8.00;;;2.17;;
84246;SDS011;74385;53.360;6.290;2023-12-22T07:46:28;6.47;;;1.77;;
84246;SDS011;74385;53.360;6.290;2023-12-22T07:48:54;5.47;;;1.90;;
84246;SDS011;74385;53.360;6.290;2023-12-22T07:51:20;13.73;;;2.80;;
84246;SDS011;74385;53.360;6.290;2023-12-22T07:53:46;4.90;;;0.90;;
84246;SDS011;74385;53.360;6.290;2023-12-22T07:56:12;12.93;;;2.63;;
84246;SDS011;74385;53.360;6.290;2023-12-22T07:58:38;9.52;;;1.77;;
84246;SDS011;74385;53.360;6.290;2023-12-22T08:01:04;4.15;;;1.67;;
84246;SDS011;74385;53.360;6.290;2023-12-22T08:03:30;5.43;;;1.08;;
84246;SDS011;74385;53.360;6.290;2023-12-22T08:05:57;13.60;;;2.90;;
84246;SDS011;74385;53.360;6.290;2023-12-22T08:08:23;8.73;;;2.47;;
84246;SDS011;74385;53.360;6.290;2023-12-22T08:10:49;7.32;;;1.80;;
84246;SDS011;74385;53.360;6.290;2023-12-22T08:13:15;10.30;;;2.22;;
84246;SDS011;74385;53.360;6.290;2023-12-22T08:15:42;8.38;;;2.13;;
84246;SDS011;74385;53.360;6.290;2023-12-22T08:18:09;19.58;;;2.35;;
84246;SDS011;74385;53.360;6.290;2023-12-22T08:20:35;9.88;;;2.88;;
84246;SDS011;74385;53.360;6.290;2023-12-22T08:23:01;12.68;;;2.35;;
84246;SDS011;74385;53.360;6.290;2023-12-22T08:25:27;7.28;;;1.60;;
84246;SDS011;74385;53.360;6.290;2023-12-22T08:27:53;10.82;;;1.85;;
84246;SDS011;74385;53.360;6.290;2023-12-22T08:30:19;8.88;;;2.28;;
84246;SDS011;74385;53.360;6.290;2023-12-22T08:32:45;6.35;;;1.50;;
84246;SDS011;74385;53.360;6.290;2023-12-22T08:35:11;4.90;;;1.33;;
84246;SDS011;74385;53.360;6.290;2023-12-22T08:37:37;9.50;;;2.10;;
84246;SDS011;74385;53.360;6.290;2023-12-22T08:40:04;5.18;;;1.30;;
84246;SDS011;74385;53.360;6.290;2023-12-22T08:42:31;5.72;;;1.17;;
84246;SDS011;74385;53.360;6.290;2023-12-22T08:44:57;6.20;;;1.33;;
84246;SDS011;74385;53.360;6.290;2023-12-22T08:47:23;6.60;;;1.40;;
84246;SDS011;74385;53.360;6.290;2023-12-22T08:49:49;9.20;;;2.05;;
84246;SDS011;74385;53.360;6.290;2023-12-22T08:52:15;6.00;;;2.08;;
84246;SDS011;74385;53.360;6.290;2023-12-22T08:54:41;9.13;;;1.50;;
84246;SDS011;74385;53.360;6.290;2023-12-22T08:57:07;7.35;;;1.92;;
84246;SDS011;74385;53.360;6.290;2023-12-22T08:59:34;9.77;;;2.03;;
84246;SDS011;74385;53.360;6.290;2023-12-22T09:02:00;3.38;;;0.82;;
84246;SDS011;74385;53.360;6.290;2023-12-22T09:04:26;6.30;;;1.50;;
84246;SDS011;74385;53.360;6.290;2023-12-22T09:06:52;5.65;;;1.55;;
84246;SDS011;74385;53.360;6.290;2023-12-22T09:09:18;8.70;;;2.15;;
84246;SDS011;74385;53.360;6.290;2023-12-22T09:11:46;8.63;;;1.63;;
84246;SDS011;74385;53.360;6.290;2023-12-22T09:14:12;11.63;;;1.65;;
84246;SDS011;74385;53.360;6.290;2023-12-22T09:16:38;4.78;;;1.00;;
84246;SDS011;74385;53.360;6.290;2023-12-22T09:19:04;10.50;;;2.10;;
84246;SDS011;74385;53.360;6.290;2023-12-22T09:21:30;13.25;;;2.72;;
84246;SDS011;74385;53.360;6.290;2023-12-22T09:23:56;8.30;;;1.73;;
84246;SDS011;74385;53.360;6.290;2023-12-22T09:26:22;6.28;;;1.60;;
84246;SDS011;74385;53.360;6.290;2023-12-22T09:28:48;7.13;;;1.17;;
84246;SDS011;74385;53.360;6.290;2023-12-22T09:31:14;8.30;;;1.95;;
84246;SDS011;74385;53.360;6.290;2023-12-22T09:33:41;5.25;;;1.60;;
84246;SDS011;74385;53.360;6.290;2023-12-22T09:36:07;6.13;;;1.67;;
84246;SDS011;74385;53.360;6.290;2023-12-22T09:38:34;8.73;;;2.08;;
84246;SDS011;74385;53.360;6.290;2023-12-22T09:41:00;9.07;;;1.10;;
84246;SDS011;74385;53.360;6.290;2023-12-22T09:43:26;6.00;;;1.88;;
84246;SDS011;74385;53.360;6.290;2023-12-22T09:45:52;4.30;;;1.10;;
84246;SDS011;74385;53.360;6.290;2023-12-22T09:48:20;5.05;;;1.27;;
84246;SDS011;74385;53.360;6.290;2023-12-22T09:50:52;3.85;;;1.65;;
84246;SDS011;74385;53.360;6.290;2023-12-22T09:53:19;2.90;;;1.17;;
84246;SDS011;74385;53.360;6.290;2023-12-22T09:55:45;3.42;;;1.25;;
84246;SDS011;74385;53.360;6.290;2023-12-22T09:58:12;7.60;;;1.08;;
84246;SDS011;74385;53.360;6.290;2023-12-22T10:00:39;3.22;;;1.33;;
84246;SDS011;74385;53.360;6.290;2023-12-22T10:03:08;5.78;;;1.30;;
84246;SDS011;74385;53.360;6.290;2023-12-22T10:05:35;6.78;;;1.73;;
84246;SDS011;74385;53.360;6.290;2023-12-22T10:08:02;5.80;;;1.77;;
84246;SDS011;74385;53.360;6.290;2023-12-22T10:10:28;3.88;;;1.15;;
84246;SDS011;74385;53.360;6.290;2023-12-22T10:12:55;5.10;;;1.00;;
84246;SDS011;74385;53.360;6.290;2023-12-22T10:15:22;4.45;;;1.15;;
84246;SDS011;74385;53.360;6.290;2023-12-22T10:17:51;7.53;;;1.65;;
84246;SDS011;74385;53.360;6.290;2023-12-22T10:20:18;4.97;;;0.88;;
84246;SDS011;74385;53.360;6.290;2023-12-22T10:22:44;8.07;;;1.42;;
84246;SDS011;74385;53.360;6.290;2023-12-22T10:25:11;7.00;;;1.02;;
84246;SDS011;74385;53.360;6.290;2023-12-22T10:27:41;5.28;;;0.95;;
84246;SDS011;74385;53.360;6.290;2023-12-22T10:30:07;4.55;;;0.95;;
84246;SDS011;74385;53.360;6.290;2023-12-22T10:32:39;6.28;;;1.23;;
84246;SDS011;74385;53.360;6.290;2023-12-22T10:35:07;8.82;;;1.42;;
84246;SDS011;74385;53.360;6.290;2023-12-22T10:37:33;7.55;;;1.50;;
84246;SDS011;74385;53.360;6.290;2023-12-22T10:39:59;6.78;;;0.63;;
84246;SDS011;74385;53.360;6.290;2023-12-22T10:42:26;5.97;;;1.30;;
84246;SDS011;74385;53.360;6.290;2023-12-22T10:44:53;8.43;;;1.38;;
84246;SDS011;74385;53.360;6.290;2023-12-22T10:47:19;6.22;;;0.73;;
84246;SDS011;74385;53.360;6.290;2023-12-22T10:49:47;3.67;;;0.57;;
84246;SDS011;74385;53.360;6.290;2023-12-22T10:52:16;7.57;;;1.88;;
84246;SDS011;74385;53.360;6.290;2023-12-22T10:54:45;6.30;;;1.58;;
84246;SDS011;74385;53.360;6.290;2023-12-22T10:57:12;3.17;;;1.05;;
84246;SDS011;74385;53.360;6.290;2023-12-22T10:59:44;3.15;;;1.25;;
84246;SDS011;74385;53.360;6.290;2023-12-22T11:02:16;1.70;;;0.40;;
84246;SDS011;74385;53.360;6.290;2023-12-22T11:04:52;7.50;;;1.33;;
84246;SDS011;74385;53.360;6.290;2023-12-22T11:07:23;3.80;;;0.55;;
84246;SDS011;74385;53.360;6.290;2023-12-22T11:09:51;15.27;;;1.83;;
84246;SDS011;74385;53.360;6.290;2023-12-22T11:12:18;3.97;;;0.98;;
84246;SDS011;74385;53.360;6.290;2023-12-22T11:14:45;5.20;;;1.10;;
84246;SDS011;74385;53.360;6.290;2023-12-22T11:17:21;3.92;;;1.15;;
84246;SDS011;74385;53.360;6.290;2023-12-22T11:19:50;7.75;;;1.60;;
84246;SDS011;74385;53.360;6.290;2023-12-22T11:22:19;9.48;;;2.00;;
84246;SDS011;74385;53.360;6.290;2023-12-22T11:24:47;5.75;;;1.35;;
84246;SDS011;74385;53.360;6.290;2023-12-22T11:27:16;4.13;;;1.38;;
84246;SDS011;74385;53.360;6.290;2023-12-22T11:29:44;5.15;;;1.10;;
84246;SDS011;74385;53.360;6.290;2023-12-22T11:32:11;6.00;;;1.23;;
84246;SDS011;74385;53.360;6.290;2023-12-22T11:34:39;7.82;;;1.80;;
84246;SDS011;74385;53.360;6.290;2023-12-22T11:37:06;7.78;;;1.55;;
84246;SDS011;74385;53.360;6.290;2023-12-22T11:39:33;12.23;;;1.10;;
84246;SDS011;74385;53.360;6.290;2023-12-22T11:41:59;3.47;;;0.65;;
84246;SDS011;74385;53.360;6.290;2023-12-22T11:44:25;8.27;;;1.13;;
84246;SDS011;74385;53.360;6.290;2023-12-22T11:47:25;4.32;;;1.00;;
84246;SDS011;74385;53.360;6.290;2023-12-22T11:49:44;4.72;;;1.33;;
84246;SDS011;74385;53.360;6.290;2023-12-22T11:52:12;3.72;;;0.88;;
84246;SDS011;74385;53.360;6.290;2023-12-22T11:54:48;3.35;;;1.13;;
84246;SDS011;74385;53.360;6.290;2023-12-22T12:02:22;4.43;;;0.95;;
84246;SDS011;74385;53.360;6.290;2023-12-22T12:04:48;6.85;;;1.30;;
84246;SDS011;74385;53.360;6.290;2023-12-22T12:10:00;10.35;;;1.98;;
84246;SDS011;74385;53.360;6.290;2023-12-22T12:12:27;7.88;;;1.67;;
84246;SDS011;74385;53.360;6.290;2023-12-22T12:14:53;5.88;;;1.15;;
84246;SDS011;74385;53.360;6.290;2023-12-22T12:17:23;8.43;;;1.88;;
84246;SDS011;74385;53.360;6.290;2023-12-22T12:19:49;4.15;;;0.80;;
84246;SDS011;74385;53.360;6.290;2023-12-22T12:22:17;4.78;;;0.80;;
84246;SDS011;74385;53.360;6.290;2023-12-22T12:24:43;3.25;;;1.05;;
84246;SDS011;74385;53.360;6.290;2023-12-22T12:27:10;5.40;;;0.95;;
84246;SDS011;74385;53.360;6.290;2023-12-22T12:29:36;1.25;;;0.50;;
84246;SDS011;74385;53.360;6.290;2023-12-22T12:32:04;5.63;;;0.75;;
84246;SDS011;74385;53.360;6.290;2023-12-22T12:34:31;7.15;;;1.15;;
84246;SDS011;74385;53.360;6.290;2023-12-22T12:36:57;9.05;;;0.90;;
84246;SDS011;74385;53.360;6.290;2023-12-22T12:39:23;2.00;;;0.63;;
84246;SDS011;74385;53.360;6.290;2023-12-22T12:41:53;2.80;;;1.23;;
84246;SDS011;74385;53.360;6.290;2023-12-22T12:44:21;6.43;;;1.20;;
84246;SDS011;74385;53.360;6.290;2023-12-22T12:46:49;8.93;;;1.20;;
84246;SDS011;74385;53.360;6.290;2023-12-22T12:49:15;1.88;;;0.60;;
84246;SDS011;74385;53.360;6.290;2023-12-22T12:51:42;1.77;;;0.88;;
84246;SDS011;74385;53.360;6.290;2023-12-22T12:54:09;3.88;;;2.08;;
84246;SDS011;74385;53.360;6.290;2023-12-22T12:56:36;6.47;;;0.88;;
84246;SDS011;74385;53.360;6.290;2023-12-22T12:59:06;7.88;;;1.60;;
84246;SDS011;74385;53.360;6.290;2023-12-22T13:01:32;4.00;;;0.43;;
84246;SDS011;74385;53.360;6.290;2023-12-22T13:04:03;2.75;;;0.60;;
84246;SDS011;74385;53.360;6.290;2023-12-22T13:06:29;4.53;;;0.93;;
84246;SDS011;74385;53.360;6.290;2023-12-22T13:08:55;3.25;;;1.05;;
84246;SDS011;74385;53.360;6.290;2023-12-22T13:11:21;3.50;;;1.40;;
84246;SDS011;74385;53.360;6.290;2023-12-22T13:13:48;3.95;;;0.73;;
84246;SDS011;74385;53.360;6.290;2023-12-22T13:16:18;5.45;;;1.05;;
84246;SDS011;74385;53.360;6.290;2023-12-22T13:18:45;4.47;;;0.77;;
84246;SDS011;74385;53.360;6.290;2023-12-22T13:21:11;5.85;;;1.00;;
84246;SDS011;74385;53.360;6.290;2023-12-22T13:23:37;2.55;;;0.55;;
84246;SDS011;74385;53.360;6.290;2023-12-22T13:26:03;5.95;;;1.05;;
84246;SDS011;74385;53.360;6.290;2023-12-22T13:28:29;5.22;;;1.10;;
84246;SDS011;74385;53.360;6.290;2023-12-22T13:30:55;2.10;;;0.47;;
84246;SDS011;74385;53.360;6.290;2023-12-22T13:33:22;3.38;;;0.80;;
84246;SDS011;74385;53.360;6.290;2023-12-22T13:35:56;6.30;;;1.77;;
84246;SDS011;74385;53.360;6.290;2023-12-22T13:38:22;5.90;;;1.13;;
84246;SDS011;74385;53.360;6.290;2023-12-22T13:40:48;2.17;;;0.80;;
84246;SDS011;74385;53.360;6.290;2023-12-22T13:43:14;2.80;;;0.90;;
84246;SDS011;74385;53.360;6.290;2023-12-22T13:45:40;2.78;;;0.50;;
84246;SDS011;74385;53.360;6.290;2023-12-22T13:48:07;4.38;;;0.68;;
84246;SDS011;74385;53.360;6.290;2023-12-22T13:50:33;10.55;;;2.13;;
84246;SDS011;74385;53.360;6.290;2023-12-22T13:53:07;5.20;;;0.70;;
84246;SDS011;74385;53.360;6.290;2023-12-22T13:55:34;6.78;;;1.23;;
84246;SDS011;74385;53.360;6.290;2023-12-22T13:58:02;2.50;;;0.52;;
84246;SDS011;74385;53.360;6.290;2023-12-22T14:00:31;3.17;;;0.82;;
84246;SDS011;74385;53.360;6.290;2023-12-22T14:02:57;4.85;;;1.05;;
84246;SDS011;74385;53.360;6.290;2023-12-22T14:05:23;8.23;;;1.75;;
84246;SDS011;74385;53.360;6.290;2023-12-22T14:07:49;7.50;;;0.88;;
84246;SDS011;74385;53.360;6.290;2023-12-22T14:10:16;3.08;;;1.55;;
84246;SDS011;74385;53.360;6.290;2023-12-22T14:12:42;5.05;;;1.05;;
84246;SDS011;74385;53.360;6.290;2023-12-22T14:15:11;5.13;;;0.75;;
84246;SDS011;74385;53.360;6.290;2023-12-22T14:17:38;3.35;;;0.82;;
84246;SDS011;74385;53.360;6.290;2023-12-22T14:20:07;5.70;;;0.73;;
84246;SDS011;74385;53.360;6.290;2023-12-22T14:22:36;4.22;;;1.10;;
84246;SDS011;74385;53.360;6.290;2023-12-22T14:25:03;2.92;;;0.57;;
84246;SDS011;74385;53.360;6.290;2023-12-22T14:27:29;6.03;;;0.68;;
84246;SDS011;74385;53.360;6.290;2023-12-22T14:29:55;2.78;;;0.55;;
84246;SDS011;74385;53.360;6.290;2023-12-22T14:32:21;0.98;;;0.30;;
84246;SDS011;74385;53.360;6.290;2023-12-22T14:34:47;5.82;;;1.30;;
84246;SDS011;74385;53.360;6.290;2023-12-22T14:37:14;4.32;;;0.68;;
84246;SDS011;74385;53.360;6.290;2023-12-22T14:39:43;2.35;;;0.35;;
84246;SDS011;74385;53.360;6.290;2023-12-22T14:44:39;5.25;;;1.45;;
84246;SDS011;74385;53.360;6.290;2023-12-22T14:47:05;2.63;;;0.55;;
84246;SDS011;74385;53.360;6.290;2023-12-22T14:49:31;5.40;;;1.10;;
84246;SDS011;74385;53.360;6.290;2023-12-22T14:51:58;3.35;;;0.57;;
84246;SDS011;74385;53.360;6.290;2023-12-22T14:54:25;2.55;;;0.60;;